^^

Weather Underground History

Daily Summary for February 16, 2018 Units:  Metric    English   Both
Daily Weekly Monthly Yearly
  High: Low: Average:
Temperature: 19 °C 12 °C 15.5 °C
Dew Point: 15 °C 9 °C 11.8 °C
Humidity: 94% 56% 80%
Wind Speed: 16km/h 0km/h 7.9km/h
Wind Gust: 29km/h - -
Wind- - WSW
Pressure: 1014.6 hPa 1008.1 hPa -
Precipitation: 7.4 mm    
 
 
Tabular Data for February 16, 2018
Time Temperature Dew Point Pressure Wind Wind Speed Wind Gust Humidity Rainfall Rate (Hourly) solar
00:04 18 °C 15 °C 1010.3 hPa SW 9 km/h 18 km/h 84% 0.0 mm 0 W/m2
00:09 18 °C 15 °C 1010.3 hPa SW 9 km/h 18 km/h 84% 0.0 mm 0 W/m2
00:14 18 °C 15 °C 1010.2 hPa SW 9 km/h 18 km/h 84% 0.0 mm 0 W/m2
00:19 18 °C 15 °C 1010.3 hPa SSW 12 km/h 24 km/h 84% 0.0 mm 0 W/m2
00:24 18 °C 15 °C 1010.2 hPa SW 8 km/h 21 km/h 84% 0.0 mm 0 W/m2
00:29 18 °C 15 °C 1010.2 hPa SW 10 km/h 19 km/h 84% 0.0 mm 0 W/m2
00:34 18 °C 15 °C 1010.1 hPa SW 10 km/h 16 km/h 85% 0.0 mm 0 W/m2
00:39 18 °C 15 °C 1010.0 hPa SW 9 km/h 16 km/h 85% 0.0 mm 0 W/m2
00:44 18 °C 15 °C 1010.0 hPa SW 11 km/h 19 km/h 85% 0.0 mm 0 W/m2
00:49 18 °C 15 °C 1010.0 hPa SW 9 km/h 21 km/h 85% 0.0 mm 0 W/m2
00:54 18 °C 15 °C 1009.9 hPa SSW 9 km/h 21 km/h 85% 0.0 mm 0 W/m2
00:59 18 °C 15 °C 1009.9 hPa SW 9 km/h 16 km/h 85% 0.0 mm 0 W/m2
01:04 18 °C 15 °C 1009.9 hPa SSW 9 km/h 16 km/h 85% 0.0 mm 0 W/m2
01:09 18 °C 15 °C 1009.9 hPa SW 10 km/h 19 km/h 85% 0.0 mm 0 W/m2
01:14 18 °C 15 °C 1009.9 hPa SW 10 km/h 21 km/h 85% 0.0 mm 0 W/m2
01:19 18 °C 15 °C 1009.9 hPa SW 9 km/h 21 km/h 85% 0.0 mm 0 W/m2
01:24 18 °C 15 °C 1009.9 hPa SSW 7 km/h 18 km/h 85% 0.0 mm 0 W/m2
01:29 18 °C 15 °C 1009.8 hPa SSW 8 km/h 19 km/h 85% 0.0 mm 0 W/m2
01:34 18 °C 15 °C 1009.8 hPa SW 9 km/h 16 km/h 85% 0.0 mm 0 W/m2
01:39 18 °C 15 °C 1009.8 hPa SW 9 km/h 18 km/h 85% 0.0 mm 0 W/m2
01:44 18 °C 15 °C 1009.8 hPa SW 14 km/h 23 km/h 85% 0.0 mm 0 W/m2
01:49 17 °C 15 °C 1009.8 hPa SW 9 km/h 21 km/h 86% 0.0 mm 0 W/m2
01:54 17 °C 15 °C 1009.8 hPa SW 12 km/h 24 km/h 88% 0.0 mm 0 W/m2
01:59 17 °C 15 °C 1009.7 hPa SW 7 km/h 21 km/h 89% 0.0 mm 0 W/m2
02:04 17 °C 15 °C 1009.7 hPa SW 5 km/h 13 km/h 90% 0.0 mm 0 W/m2
02:09 17 °C 15 °C 1009.7 hPa SW 4 km/h 14 km/h 90% 0.0 mm 0 W/m2
02:14 17 °C 15 °C 1009.5 hPa SW 3 km/h 14 km/h 91% 0.0 mm 0 W/m2
02:19 17 °C 15 °C 1009.5 hPa SW 7 km/h 16 km/h 91% 0.0 mm 0 W/m2
02:24 17 °C 15 °C 1009.5 hPa SW 7 km/h 14 km/h 91% 0.0 mm 0 W/m2
02:29 17 °C 15 °C 1009.4 hPa SSW 9 km/h 18 km/h 91% 0.0 mm 0 W/m2
02:34 16 °C 15 °C 1009.3 hPa SW 9 km/h 16 km/h 91% 0.0 mm 0 W/m2
02:39 16 °C 15 °C 1009.4 hPa SW 8 km/h 19 km/h 91% 0.0 mm 0 W/m2
02:44 16 °C 15 °C 1009.4 hPa SSW 8 km/h 14 km/h 91% 0.0 mm 0 W/m2
02:49 16 °C 15 °C 1009.4 hPa SSW 7 km/h 21 km/h 91% 0.0 mm 0 W/m2
02:54 16 °C 15 °C 1009.4 hPa SSW 8 km/h 18 km/h 92% 0.0 mm 0 W/m2
02:59 16 °C 15 °C 1009.3 hPa SW 8 km/h 16 km/h 92% 0.0 mm 0 W/m2
03:04 16 °C 15 °C 1009.3 hPa SW 7 km/h 14 km/h 92% 0.0 mm 0 W/m2
03:09 16 °C 15 °C 1009.2 hPa SW 6 km/h 14 km/h 92% 0.0 mm 0 W/m2
03:14 16 °C 15 °C 1008.9 hPa SW 8 km/h 19 km/h 92% 0.0 mm 0 W/m2
03:19 16 °C 15 °C 1009.0 hPa SW 10 km/h 19 km/h 92% 0.0 mm 0 W/m2
03:24 16 °C 15 °C 1009.0 hPa SW 8 km/h 18 km/h 92% 2.0 mm 0 W/m2
03:29 16 °C 15 °C 1008.8 hPa SW 7 km/h 11 km/h 92% 2.0 mm 0 W/m2
03:34 16 °C 15 °C 1008.8 hPa SW 7 km/h 16 km/h 92% 1.5 mm 0 W/m2
03:39 16 °C 15 °C 1008.8 hPa SW 7 km/h 16 km/h 92% 1.5 mm 0 W/m2
03:44 16 °C 14 °C 1008.7 hPa WSW 7 km/h 13 km/h 92% 1.0 mm 0 W/m2
03:49 16 °C 15 °C 1008.7 hPa SW 7 km/h 13 km/h 92% 0.8 mm 0 W/m2
03:54 16 °C 15 °C 1008.6 hPa SW 5 km/h 11 km/h 93% 0.8 mm 0 W/m2
03:59 16 °C 15 °C 1008.5 hPa SW 6 km/h 10 km/h 93% 0.8 mm 0 W/m2
04:04 16 °C 14 °C 1008.5 hPa SW 6 km/h 10 km/h 93% 0.0 mm 0 W/m2
04:09 16 °C 14 °C 1008.5 hPa SW 5 km/h 10 km/h 93% 1.5 mm 0 W/m2
04:14 16 °C 14 °C 1008.5 hPa West 7 km/h 14 km/h 93% 6.1 mm 0 W/m2
04:19 16 °C 14 °C 1008.5 hPa West 6 km/h 14 km/h 93% 5.3 mm 0 W/m2
04:24 16 °C 14 °C 1008.4 hPa West 9 km/h 18 km/h 93% 3.8 mm 0 W/m2
04:29 15 °C 14 °C 1008.4 hPa West 9 km/h 18 km/h 93% 5.1 mm 0 W/m2
04:34 15 °C 14 °C 1008.3 hPa West 9 km/h 14 km/h 93% 5.1 mm 0 W/m2
04:39 15 °C 14 °C 1008.3 hPa WSW 7 km/h 14 km/h 93% 7.9 mm 0 W/m2
04:44 15 °C 14 °C 1008.2 hPa SW 7 km/h 18 km/h 93% 2.5 mm 0 W/m2
04:49 15 °C 14 °C 1008.2 hPa WSW 6 km/h 13 km/h 94% 1.3 mm 0 W/m2
04:54 15 °C 14 °C 1008.2 hPa SW 9 km/h 21 km/h 94% 0.8 mm 0 W/m2
04:59 15 °C 14 °C 1008.1 hPa WSW 8 km/h 14 km/h 94% 3.8 mm 0 W/m2
05:04 15 °C 14 °C 1008.2 hPa WSW 6 km/h 11 km/h 94% 8.4 mm 0 W/m2
05:09 15 °C 14 °C 1008.3 hPa WSW 5 km/h 11 km/h 94% 8.4 mm 0 W/m2
05:14 15 °C 14 °C 1008.3 hPa West 8 km/h 13 km/h 93% 7.9 mm 0 W/m2
05:19 15 °C 14 °C 1008.4 hPa West 6 km/h 13 km/h 93% 9.9 mm 0 W/m2
05:24 15 °C 14 °C 1008.4 hPa West 8 km/h 16 km/h 93% 14.5 mm 0 W/m2
05:29 15 °C 14 °C 1008.4 hPa West 10 km/h 21 km/h 93% 9.9 mm 0 W/m2
05:34 14 °C 13 °C 1008.4 hPa West 7 km/h 21 km/h 93% 18.3 mm 0 W/m2
05:39 14 °C 13 °C 1008.3 hPa West 5 km/h 11 km/h 93% 18.3 mm 0 W/m2
05:44 14 °C 13 °C 1008.2 hPa West 5 km/h 11 km/h 94% 10.9 mm 0 W/m2
05:49 14 °C 13 °C 1008.2 hPa West 4 km/h 10 km/h 94% 2.3 mm 0 W/m2
05:54 14 °C 13 °C 1008.2 hPa West 4 km/h 8 km/h 94% 1.5 mm 0 W/m2
05:59 14 °C 13 °C 1008.3 hPa West 3 km/h 10 km/h 94% 1.5 mm 0 W/m2
06:04 14 °C 13 °C 1008.3 hPa West 3 km/h 10 km/h 94% 1.0 mm 0 W/m2
06:09 14 °C 13 °C 1008.3 hPa West 1 km/h 8 km/h 94% 1.0 mm 0 W/m2
06:14 14 °C 13 °C 1008.2 hPa WSW 6 km/h 14 km/h 94% 1.0 mm 0 W/m2
06:19 14 °C 13 °C 1008.2 hPa WSW 8 km/h 14 km/h 94% 1.0 mm 5 W/m2
06:24 14 °C 13 °C 1008.3 hPa SW 7 km/h 11 km/h 94% 0.0 mm 9 W/m2
06:29 14 °C 13 °C 1008.4 hPa WSW 9 km/h 19 km/h 94% 0.0 mm 9 W/m2
06:34 14 °C 13 °C 1008.4 hPa WSW 7 km/h 11 km/h 94% 0.0 mm 11 W/m2
06:39 14 °C 13 °C 1008.3 hPa WSW 7 km/h 11 km/h 94% 0.0 mm 11 W/m2
06:44 14 °C 13 °C 1008.3 hPa SW 7 km/h 18 km/h 94% 0.0 mm 11 W/m2
06:49 14 °C 13 °C 1008.3 hPa SW 11 km/h 19 km/h 94% 0.0 mm 12 W/m2
06:54 14 °C 13 °C 1008.3 hPa SW 9 km/h 19 km/h 93% 0.0 mm 12 W/m2
06:59 14 °C 13 °C 1008.2 hPa SW 8 km/h 14 km/h 93% 0.0 mm 14 W/m2
07:04 14 °C 13 °C 1008.5 hPa WSW 8 km/h 16 km/h 93% 0.0 mm 12 W/m2
07:09 14 °C 13 °C 1008.6 hPa WSW 8 km/h 14 km/h 93% 0.0 mm 12 W/m2
07:14 14 °C 13 °C 1008.7 hPa WSW 7 km/h 13 km/h 93% 0.0 mm 25 W/m2
07:19 14 °C 13 °C 1008.5 hPa SW 7 km/h 13 km/h 93% 3.3 mm 32 W/m2
07:24 14 °C 13 °C 1008.6 hPa WSW 7 km/h 14 km/h 93% 3.3 mm 35 W/m2
07:29 14 °C 13 °C 1008.5 hPa SW 7 km/h 16 km/h 93% 1.5 mm 47 W/m2
07:34 14 °C 13 °C 1008.5 hPa WSW 8 km/h 14 km/h 93% 1.0 mm 47 W/m2
07:39 14 °C 13 °C 1008.5 hPa SW 7 km/h 14 km/h 93% 1.5 mm 35 W/m2
07:44 14 °C 13 °C 1008.3 hPa SW 6 km/h 10 km/h 94% 1.5 mm 32 W/m2
07:49 14 °C 13 °C 1008.3 hPa SW 5 km/h 10 km/h 94% 1.5 mm 28 W/m2
07:54 14 °C 13 °C 1008.2 hPa SSW 7 km/h 13 km/h 94% 1.0 mm 26 W/m2
07:59 14 °C 13 °C 1008.3 hPa SW 8 km/h 14 km/h 94% 0.8 mm 26 W/m2
08:04 14 °C 13 °C 1008.4 hPa SW 9 km/h 18 km/h 94% 0.0 mm 32 W/m2
08:09 14 °C 13 °C 1008.5 hPa SW 9 km/h 18 km/h 94% 0.0 mm 30 W/m2
08:14 14 °C 13 °C 1008.6 hPa WSW 12 km/h 21 km/h 94% 0.0 mm 14 W/m2
08:19 14 °C 13 °C 1008.6 hPa WSW 10 km/h 14 km/h 94% 0.0 mm 26 W/m2
08:24 14 °C 13 °C 1008.7 hPa WSW 9 km/h 14 km/h 94% 0.0 mm 25 W/m2
08:29 14 °C 13 °C 1008.6 hPa WSW 8 km/h 14 km/h 94% 0.0 mm 62 W/m2
08:34 14 °C 13 °C 1008.6 hPa WSW 8 km/h 13 km/h 94% 0.0 mm 62 W/m2
08:39 14 °C 13 °C 1008.7 hPa SW 9 km/h 18 km/h 94% 0.0 mm 37 W/m2
08:44 14 °C 13 °C 1008.7 hPa SW 8 km/h 14 km/h 94% 0.0 mm 49 W/m2
08:49 14 °C 13 °C 1008.8 hPa WSW 8 km/h 14 km/h 94% 0.0 mm 72 W/m2
08:54 14 °C 13 °C 1008.8 hPa WSW 10 km/h 14 km/h 93% 0.0 mm 62 W/m2
08:59 14 °C 13 °C 1008.9 hPa WSW 10 km/h 19 km/h 93% 0.0 mm 33 W/m2
09:04 14 °C 13 °C 1008.9 hPa WSW 8 km/h 13 km/h 93% 0.0 mm 62 W/m2
09:09 14 °C 13 °C 1008.9 hPa WSW 7 km/h 14 km/h 93% 0.0 mm 63 W/m2
09:14 14 °C 13 °C 1008.9 hPa WSW 8 km/h 16 km/h 93% 0.0 mm 60 W/m2
09:19 14 °C 13 °C 1008.9 hPa SW 9 km/h 16 km/h 93% 0.0 mm 39 W/m2
09:24 14 °C 13 °C 1009.0 hPa WSW 7 km/h 14 km/h 93% 0.0 mm 35 W/m2
09:29 14 °C 13 °C 1009.0 hPa SW 9 km/h 16 km/h 93% 0.0 mm 58 W/m2
09:34 14 °C 13 °C 1009.0 hPa SW 6 km/h 13 km/h 93% 0.0 mm 62 W/m2
09:39 14 °C 13 °C 1009.1 hPa West 6 km/h 14 km/h 93% 0.0 mm 30 W/m2
09:44 14 °C 13 °C 1009.2 hPa WNW 6 km/h 14 km/h 92% 0.0 mm 19 W/m2
09:49 14 °C 12 °C 1009.3 hPa WNW 6 km/h 11 km/h 92% 0.0 mm 53 W/m2
09:54 13 °C 12 °C 1009.3 hPa NW 4 km/h 8 km/h 92% 0.0 mm 141 W/m2
09:59 13 °C 12 °C 1009.2 hPa NW 1 km/h 6 km/h 92% 0.0 mm 195 W/m2
10:04 13 °C 12 °C 1009.2 hPa Calm     92% 0.0 mm 251 W/m2
10:09 14 °C 13 °C 1009.2 hPa NW 3 km/h 6 km/h 93% 0.0 mm 251 W/m2
10:14 14 °C 13 °C 1009.4 hPa WNW 5 km/h 10 km/h 92% 0.0 mm 193 W/m2
10:19 14 °C 13 °C 1009.4 hPa WNW 5 km/h 11 km/h 92% 0.0 mm 214 W/m2
10:24 14 °C 13 °C 1009.5 hPa WNW 5 km/h 11 km/h 92% 0.0 mm 230 W/m2
10:29 14 °C 13 °C 1009.5 hPa WNW 6 km/h 13 km/h 91% 0.0 mm 178 W/m2
10:34 14 °C 13 °C 1009.4 hPa WNW 4 km/h 10 km/h 91% 0.0 mm 162 W/m2
10:39 14 °C 13 °C 1009.3 hPa WNW 5 km/h 13 km/h 90% 0.0 mm 167 W/m2
10:44 14 °C 12 °C 1009.4 hPa West 7 km/h 13 km/h 89% 0.0 mm 186 W/m2
10:49 14 °C 12 °C 1009.5 hPa West 4 km/h 10 km/h 88% 0.0 mm 163 W/m2
10:54 14 °C 12 °C 1009.6 hPa West 5 km/h 11 km/h 87% 0.0 mm 105 W/m2
10:59 14 °C 12 °C 1009.6 hPa WSW 4 km/h 10 km/h 87% 0.0 mm 141 W/m2
11:04 14 °C 12 °C 1009.5 hPa WSW 5 km/h 10 km/h 87% 0.0 mm 183 W/m2
11:09 14 °C 12 °C 1009.5 hPa West 6 km/h 11 km/h 88% 0.0 mm 246 W/m2
11:14 14 °C 12 °C 1009.6 hPa West 7 km/h 13 km/h 87% 0.0 mm 462 W/m2
11:19 14 °C 12 °C 1009.7 hPa West 9 km/h 16 km/h 86% 0.0 mm 503 W/m2
11:24 14 °C 12 °C 1009.8 hPa West 9 km/h 16 km/h 85% 0.0 mm 353 W/m2
11:29 15 °C 12 °C 1009.8 hPa West 9 km/h 18 km/h 84% 0.0 mm 287 W/m2
11:34 14 °C 12 °C 1009.9 hPa West 9 km/h 18 km/h 82% 0.0 mm 250 W/m2
11:39 14 °C 12 °C 1009.9 hPa West 8 km/h 14 km/h 82% 0.0 mm 262 W/m2
11:44 14 °C 12 °C 1009.9 hPa West 8 km/h 14 km/h 83% 0.0 mm 274 W/m2
11:49 14 °C 12 °C 1009.9 hPa West 9 km/h 16 km/h 82% 0.0 mm 288 W/m2
11:54 14 °C 12 °C 1009.8 hPa West 8 km/h 14 km/h 82% 0.0 mm 316 W/m2
11:59 15 °C 12 °C 1009.7 hPa WNW 8 km/h 16 km/h 82% 0.0 mm 452 W/m2
12:04 15 °C 12 °C 1009.7 hPa WNW 8 km/h 18 km/h 83% 0.0 mm 784 W/m2
12:09 16 °C 12 °C 1009.7 hPa West 9 km/h 18 km/h 82% 0.0 mm 784 W/m2
12:14 16 °C 12 °C 1009.8 hPa West 10 km/h 24 km/h 80% 0.0 mm 712 W/m2
12:19 16 °C 12 °C 1009.7 hPa West 11 km/h 24 km/h 79% 0.0 mm 851 W/m2
12:24 16 °C 12 °C 1009.8 hPa West 11 km/h 23 km/h 77% 0.0 mm 668 W/m2
12:29 16 °C 11 °C 1009.9 hPa West 10 km/h 26 km/h 75% 0.0 mm 603 W/m2
12:34 16 °C 12 °C 1009.9 hPa West 12 km/h 23 km/h 77% 0.0 mm 603 W/m2
12:39 16 °C 12 °C 1009.9 hPa West 13 km/h 23 km/h 74% 0.0 mm 450 W/m2
12:44 16 °C 12 °C 1009.8 hPa West 13 km/h 29 km/h 74% 0.0 mm 944 W/m2
12:49 17 °C 12 °C 1009.9 hPa West 12 km/h 29 km/h 72% 0.0 mm 956 W/m2
12:54 17 °C 11 °C 1009.9 hPa WNW 11 km/h 21 km/h 69% 0.0 mm 258 W/m2
12:59 16 °C 11 °C 1010.0 hPa West 8 km/h 19 km/h 71% 0.0 mm 872 W/m2
13:04 17 °C 10 °C 1009.9 hPa WNW 10 km/h 18 km/h 66% 0.0 mm 872 W/m2
13:09 17 °C 10 °C 1009.8 hPa West 9 km/h 18 km/h 66% 0.0 mm 867 W/m2
13:14 17 °C 11 °C 1009.8 hPa West 13 km/h 21 km/h 66% 0.0 mm 889 W/m2
13:19 17 °C 11 °C 1009.8 hPa WSW 10 km/h 21 km/h 64% 0.0 mm 882 W/m2
13:24 17 °C 11 °C 1009.8 hPa West 9 km/h 18 km/h 66% 0.0 mm 997 W/m2
13:29 18 °C 11 °C 1009.8 hPa WSW 13 km/h 21 km/h 63% 0.0 mm 997 W/m2
13:34 17 °C 10 °C 1009.8 hPa West 13 km/h 29 km/h 63% 0.0 mm 269 W/m2
13:39 17 °C 11 °C 1009.8 hPa WSW 11 km/h 19 km/h 66% 0.0 mm 320 W/m2
13:44 17 °C 11 °C 1009.8 hPa WSW 9 km/h 18 km/h 65% 0.0 mm 297 W/m2
13:49 17 °C 11 °C 1009.8 hPa West 9 km/h 16 km/h 66% 0.0 mm 309 W/m2
13:54 17 °C 11 °C 1009.9 hPa WSW 10 km/h 16 km/h 66% 0.0 mm 309 W/m2
13:59 17 °C 11 °C 1009.9 hPa WSW 8 km/h 16 km/h 66% 0.0 mm 881 W/m2
14:04 18 °C 12 °C 1009.9 hPa WSW 10 km/h 18 km/h 66% 0.0 mm 851 W/m2
14:09 18 °C 12 °C 1009.9 hPa SW 10 km/h 18 km/h 65% 0.0 mm 902 W/m2
14:14 18 °C 11 °C 1009.8 hPa WSW 14 km/h 24 km/h 63% 0.0 mm 564 W/m2
14:19 18 °C 11 °C 1009.9 hPa WSW 13 km/h 24 km/h 63% 0.0 mm 1002 W/m2
14:24 18 °C 11 °C 1010.0 hPa WSW 13 km/h 21 km/h 60% 0.0 mm 279 W/m2
14:29 18 °C 11 °C 1010.0 hPa WSW 10 km/h 19 km/h 63% 0.0 mm 221 W/m2
14:34 18 °C 11 °C 1010.0 hPa West 10 km/h 18 km/h 64% 0.0 mm 271 W/m2
14:39 17 °C 11 °C 1010.0 hPa West 10 km/h 21 km/h 65% 0.0 mm 251 W/m2
14:44 17 °C 11 °C 1010.0 hPa WSW 14 km/h 21 km/h 64% 0.0 mm 269 W/m2
14:49 17 °C 11 °C 1010.0 hPa WSW 12 km/h 23 km/h 64% 0.0 mm 253 W/m2
14:54 17 °C 10 °C 1010.1 hPa WSW 13 km/h 26 km/h 63% 0.0 mm 230 W/m2
14:59 17 °C 10 °C 1010.1 hPa West 11 km/h 26 km/h 63% 0.0 mm 362 W/m2
15:04 18 °C 11 °C 1010.1 hPa West 13 km/h 19 km/h 65% 0.0 mm 919 W/m2
15:09 18 °C 11 °C 1010.1 hPa West 14 km/h 24 km/h 60% 0.0 mm 851 W/m2
15:14 18 °C 9 °C 1010.2 hPa West 13 km/h 24 km/h 57% 0.0 mm 255 W/m2
15:19 18 °C 10 °C 1010.2 hPa WSW 14 km/h 21 km/h 59% 0.0 mm 255 W/m2
15:24 18 °C 10 °C 1010.3 hPa WSW 11 km/h 23 km/h 61% 0.0 mm 190 W/m2
15:29 17 °C 10 °C 1010.3 hPa West 13 km/h 23 km/h 62% 0.0 mm 178 W/m2
15:34 17 °C 10 °C 1010.4 hPa West 13 km/h 26 km/h 61% 0.0 mm 260 W/m2
15:39 17 °C 10 °C 1010.4 hPa West 12 km/h 21 km/h 62% 0.0 mm 322 W/m2
15:44 17 °C 10 °C 1010.6 hPa West 12 km/h 21 km/h 62% 0.0 mm 408 W/m2
15:49 18 °C 11 °C 1010.6 hPa West 11 km/h 19 km/h 62% 0.0 mm 408 W/m2
15:54 18 °C 10 °C 1010.5 hPa West 13 km/h 24 km/h 60% 0.0 mm 360 W/m2
15:59 18 °C 10 °C 1010.6 hPa WSW 13 km/h 24 km/h 59% 0.0 mm 355 W/m2
16:04 18 °C 10 °C 1010.6 hPa West 14 km/h 23 km/h 60% 0.0 mm 888 W/m2
16:09 18 °C 11 °C 1010.5 hPa WSW 15 km/h 23 km/h 60% 0.0 mm 798 W/m2
16:14 18 °C 11 °C 1010.5 hPa WSW 15 km/h 24 km/h 58% 0.0 mm 715 W/m2
16:19 19 °C 10 °C 1010.8 hPa West 13 km/h 24 km/h 58% 0.0 mm 605 W/m2
16:24 19 °C 10 °C 1010.7 hPa WSW 16 km/h 26 km/h 56% 0.0 mm 619 W/m2
16:29 19 °C 10 °C 1010.8 hPa WSW 14 km/h 26 km/h 57% 0.0 mm 624 W/m2
16:34 19 °C 10 °C 1010.8 hPa West 11 km/h 23 km/h 56% 0.0 mm 619 W/m2
16:39 18 °C 9 °C 1010.7 hPa WNW 11 km/h 19 km/h 56% 0.0 mm 118 W/m2
16:44 18 °C 9 °C 1010.7 hPa West 9 km/h 18 km/h 58% 0.0 mm 142 W/m2
16:49 18 °C 10 °C 1010.8 hPa West 10 km/h 18 km/h 60% 0.0 mm 202 W/m2
16:54 18 °C 10 °C 1010.8 hPa WSW 11 km/h 27 km/h 61% 0.0 mm 295 W/m2
16:59 18 °C 10 °C 1010.9 hPa WSW 15 km/h 27 km/h 60% 0.0 mm 155 W/m2
17:04 18 °C 10 °C 1010.9 hPa WSW 12 km/h 23 km/h 60% 0.0 mm 155 W/m2
17:09 18 °C 10 °C 1011.0 hPa WSW 12 km/h 21 km/h 62% 0.0 mm 141 W/m2
17:14 17 °C 10 °C 1011.1 hPa West 13 km/h 24 km/h 62% 0.0 mm 113 W/m2
17:19 17 °C 9 °C 1011.1 hPa WSW 15 km/h 27 km/h 61% 0.0 mm 90 W/m2
17:24 17 °C 9 °C 1011.1 hPa West 12 km/h 27 km/h 61% 0.0 mm 102 W/m2
17:29 17 °C 10 °C 1011.1 hPa West 11 km/h 21 km/h 62% 0.0 mm 114 W/m2
17:34 17 °C 10 °C 1011.1 hPa West 13 km/h 26 km/h 62% 0.0 mm 120 W/m2
17:39 17 °C 10 °C 1011.1 hPa West 10 km/h 19 km/h 63% 0.0 mm 93 W/m2
17:44 17 °C 10 °C 1011.1 hPa West 8 km/h 18 km/h 64% 0.0 mm 83 W/m2
17:49 17 °C 10 °C 1011.2 hPa West 9 km/h 14 km/h 64% 0.0 mm 97 W/m2
17:54 17 °C 10 °C 1011.2 hPa West 10 km/h 18 km/h 64% 0.0 mm 417 W/m2
17:59 17 °C 11 °C 1011.2 hPa West 8 km/h 18 km/h 64% 0.0 mm 264 W/m2
18:04 17 °C 11 °C 1011.2 hPa West 10 km/h 21 km/h 64% 0.0 mm 172 W/m2
18:09 17 °C 10 °C 1011.2 hPa West 12 km/h 23 km/h 63% 0.0 mm 123 W/m2
18:14 17 °C 10 °C 1011.3 hPa West 9 km/h 23 km/h 63% 0.0 mm 134 W/m2
18:19 17 °C 10 °C 1011.3 hPa WNW 8 km/h 16 km/h 64% 0.0 mm 162 W/m2
18:24 17 °C 10 °C 1011.3 hPa West 7 km/h 14 km/h 64% 0.0 mm 366 W/m2
18:29 17 °C 11 °C 1011.3 hPa West 8 km/h 14 km/h 63% 0.0 mm 341 W/m2
18:34 18 °C 11 °C 1011.3 hPa WNW 7 km/h 14 km/h 62% 0.0 mm 278 W/m2
18:39 18 °C 10 °C 1011.4 hPa WNW 10 km/h 21 km/h 60% 0.0 mm 244 W/m2
18:44 18 °C 10 °C 1011.4 hPa West 10 km/h 19 km/h 60% 0.0 mm 121 W/m2
18:49 17 °C 9 °C 1011.4 hPa West 8 km/h 18 km/h 61% 0.0 mm 79 W/m2
18:54 17 °C 9 °C 1011.5 hPa West 10 km/h 18 km/h 62% 0.0 mm 83 W/m2
18:59 17 °C 10 °C 1011.6 hPa West 8 km/h 16 km/h 63% 0.0 mm 197 W/m2
19:04 17 °C 10 °C 1011.6 hPa West 9 km/h 21 km/h 63% 0.0 mm 192 W/m2
19:09 17 °C 10 °C 1011.6 hPa West 11 km/h 21 km/h 62% 0.0 mm 183 W/m2
19:14 17 °C 10 °C 1011.7 hPa West 9 km/h 21 km/h 62% 0.0 mm 132 W/m2
19:19 17 °C 10 °C 1011.8 hPa West 11 km/h 23 km/h 62% 0.0 mm 127 W/m2
19:24 17 °C 9 °C 1012.0 hPa WSW 12 km/h 26 km/h 61% 0.0 mm 118 W/m2
19:29 17 °C 9 °C 1012.0 hPa West 11 km/h 19 km/h 61% 0.0 mm 86 W/m2
19:34 17 °C 9 °C 1012.0 hPa West 10 km/h 19 km/h 62% 0.0 mm 70 W/m2
19:39 17 °C 9 °C 1012.1 hPa West 8 km/h 18 km/h 62% 0.0 mm 56 W/m2
19:44 17 °C 9 °C 1012.1 hPa West 8 km/h 16 km/h 62% 0.0 mm 46 W/m2
19:49 17 °C 9 °C 1012.2 hPa West 5 km/h 11 km/h 63% 0.0 mm 37 W/m2
19:54 16 °C 9 °C 1012.3 hPa West 4 km/h 10 km/h 64% 0.0 mm 33 W/m2
19:59 16 °C 9 °C 1012.4 hPa West 7 km/h 14 km/h 64% 0.0 mm 26 W/m2
20:04 16 °C 9 °C 1012.4 hPa WNW 8 km/h 16 km/h 64% 0.0 mm 18 W/m2
20:09 16 °C 9 °C 1012.5 hPa West 4 km/h 13 km/h 65% 0.0 mm 12 W/m2
20:14 16 °C 9 °C 1012.5 hPa WNW 3 km/h 8 km/h 66% 0.0 mm 11 W/m2
20:19 16 °C 9 °C 1012.6 hPa WNW 1 km/h 6 km/h 67% 0.0 mm 7 W/m2
20:24 15 °C 9 °C 1012.7 hPa WNW 2 km/h 8 km/h 68% 0.0 mm 7 W/m2
20:29 15 °C 9 °C 1012.8 hPa WNW 1 km/h 8 km/h 69% 0.0 mm 5 W/m2
20:34 14 °C 9 °C 1012.8 hPa WNW 2 km/h 8 km/h 70% 0.0 mm 0 W/m2
20:39 14 °C 9 °C 1012.9 hPa WNW 1 km/h 5 km/h 71% 0.0 mm 0 W/m2
20:44 14 °C 9 °C 1012.9 hPa Calm   3 km/h 72% 0.0 mm 0 W/m2
20:49 14 °C 9 °C 1012.9 hPa Calm   2 km/h 72% 0.0 mm 0 W/m2
20:54 14 °C 9 °C 1012.9 hPa Calm     73% 0.0 mm 0 W/m2
20:59 14 °C 9 °C 1013.0 hPa Calm   5 km/h 74% 0.0 mm 0 W/m2
21:04 13 °C 9 °C 1013.1 hPa Calm   5 km/h 75% 0.0 mm 0 W/m2
21:09 13 °C 9 °C 1013.2 hPa Calm   3 km/h 75% 0.0 mm 0 W/m2
21:14 13 °C 9 °C 1013.2 hPa WNW 2 km/h 6 km/h 76% 0.0 mm 0 W/m2
21:19 13 °C 9 °C 1013.3 hPa WNW 2 km/h 6 km/h 77% 0.0 mm 0 W/m2
21:24 13 °C 9 °C 1013.2 hPa WNW 1 km/h 5 km/h 77% 0.0 mm 0 W/m2
21:29 13 °C 9 °C 1013.3 hPa West 4 km/h 10 km/h 77% 0.0 mm 0 W/m2
21:34 13 °C 9 °C 1013.3 hPa West 3 km/h 8 km/h 78% 0.0 mm 0 W/m2
21:39 13 °C 9 °C 1013.4 hPa West 2 km/h 10 km/h 79% 0.0 mm 0 W/m2
21:44 13 °C 9 °C 1013.4 hPa West 3 km/h 10 km/h 79% 0.0 mm 0 W/m2
21:49 13 °C 9 °C 1013.5 hPa West 4 km/h 8 km/h 80% 0.0 mm 0 W/m2
21:54 13 °C 9 °C 1013.5 hPa West 4 km/h 8 km/h 80% 0.0 mm 0 W/m2
21:59 13 °C 9 °C 1013.6 hPa West 5 km/h 8 km/h 81% 0.0 mm 0 W/m2
22:04 13 °C 9 °C 1013.7 hPa West 4 km/h 8 km/h 81% 0.0 mm 0 W/m2
22:09 13 °C 9 °C 1013.6 hPa West 4 km/h 8 km/h 81% 0.0 mm 0 W/m2
22:14 13 °C 9 °C 1013.7 hPa West 7 km/h 13 km/h 81% 0.0 mm 0 W/m2
22:19 13 °C 10 °C 1013.7 hPa West 7 km/h 13 km/h 82% 0.0 mm 0 W/m2
22:24 13 °C 10 °C 1013.6 hPa West 6 km/h 13 km/h 82% 0.0 mm 0 W/m2
22:29 13 °C 10 °C 1013.8 hPa West 6 km/h 11 km/h 82% 0.0 mm 0 W/m2
22:34 13 °C 10 °C 1013.8 hPa West 6 km/h 10 km/h 82% 0.0 mm 0 W/m2
22:39 13 °C 10 °C 1013.9 hPa WSW 6 km/h 10 km/h 82% 0.0 mm 0 W/m2
22:44 13 °C 9 °C 1013.9 hPa WSW 5 km/h 10 km/h 82% 0.0 mm 0 W/m2
22:49 13 °C 9 °C 1014.0 hPa WSW 6 km/h 11 km/h 82% 0.0 mm 0 W/m2
22:54 13 °C 10 °C 1014.1 hPa WSW 6 km/h 8 km/h 83% 0.0 mm 0 W/m2
22:59 13 °C 9 °C 1014.1 hPa WSW 5 km/h 8 km/h 83% 0.0 mm 0 W/m2
23:04 12 °C 9 °C 1014.2 hPa WSW 6 km/h 10 km/h 83% 0.0 mm 0 W/m2
23:09 12 °C 9 °C 1014.2 hPa WSW 6 km/h 10 km/h 83% 0.0 mm 0 W/m2
23:14 12 °C 9 °C 1014.3 hPa West 5 km/h 10 km/h 84% 0.0 mm 0 W/m2
23:19 12 °C 9 °C 1014.3 hPa West 4 km/h 8 km/h 84% 0.0 mm 0 W/m2
23:24 12 °C 9 °C 1014.4 hPa West 4 km/h 8 km/h 84% 0.0 mm 0 W/m2
23:29 12 °C 9 °C 1014.4 hPa West 5 km/h 8 km/h 85% 0.0 mm 0 W/m2
23:34 12 °C 9 °C 1014.4 hPa West 4 km/h 6 km/h 85% 0.0 mm 0 W/m2
23:39 12 °C 9 °C 1014.3 hPa West 3 km/h 6 km/h 85% 0.0 mm 0 W/m2
23:44 12 °C 9 °C 1014.4 hPa West 3 km/h 6 km/h 86% 0.0 mm 0 W/m2
23:49 12 °C 9 °C 1014.5 hPa West 1 km/h 6 km/h 86% 0.0 mm 0 W/m2
23:54 12 °C 9 °C 1014.6 hPa West 1 km/h 6 km/h 86% 0.0 mm 0 W/m2
23:59 12 °C 9 °C 1014.6 hPa Calm   3 km/h 86% 0.0 mm 0 W/m2
Compliments of Weather Underground - 4.25 mb